Accueil
METAR-TAF:

METAR-TAF

Aéroports :

Nîmes, France

Aéroport de Nîmes–Alès–Camargue–Cévennes. Garons

latitude: 43-45N, longitude: 004-25E, altitude: 94 m

Observation

Le bulletin a été fait il y a 25 minutes, à 01:30 UTC
Vent 4 kt de nord
Température 23°C
Humidité 83%
Pression 1017 hPa
Visibilité 10 km ou plus
pas de nuages en-dessous de 1500 mètres et pas de cumulonimbus.

METAR: LFTW 240130Z AUTO 35004KT CAVOK 23/20 Q1017

Heure: 03:55 (01:55 UTC)

Prévision

Le bulletin a été fait il y a 11 heures et 55 minutes, à 14:00 UTC
Prévision valable du 23 à 15 UTC au 24 à 15 UTC
Vent 10 kt de sud/sud-ouest
Visibilité 10 km ou plus
pas de nuages en-dessous de 1500 mètres et pas de cumulonimbus.
Evoluant progressivement
du 24 à 03 UTC au 24 à 06 UTC
Vent 10 kt de nord
Evoluant progressivement
du 24 à 12 UTC au 24 à 15 UTC
Vent 10 kt de sud-ouest

TAF: LFTW 231400Z 2315/2415 20010KT CAVOK BECMG 2403/2406 36010KT BECMG 2412/2415 22010KT

Observations et prévisions météorologiques de plus de 4000 aéroports (messages METAR et TAF).

Les stations disponibles sont représentées par des disques jaunes et rouges sur la carte.

Passer la souris dessus pour voir le nom de la station.

Cliquer dessus pour voir les observations et prévisions météorologiques.

Pour changer de carte: cliquez sur les boutons verts avec une croix noire pour zoomer, sur le bouton vert avec un tiret pour effectuer un zoom arrière, ou sur les flèches vertes pour les cartes adjacentes.


METAR-TAF: